Latest Weather Observations for Legendre Island

IDW60801

Issued at 1:05 pm WST Saturday 25 October 2014 (issued every 30 minutes, with the page automatically refreshed every 10 minutes)

About weather observations | Map of weather stations | Latest weather observations for WA | Other Formats
Station Details ID: 004095 Name: LEGENDRE ISLAND Lat: -20.36 Lon: 116.84 Height: 29.0 m
Data from the previous 72 hours. | See also: Recent months for locations in Western Australia
Date/Time
WST
Temp
°C
App
Temp
°C
Dew
Point
Rel
Hum
%
Delta-T
°C
Wind Press
QNH
hPa
Press
MSL
hPa
Rain
since 9 am
mm
Dir
 
Spd
km/h
Gust
km/h
Spd
kts
Gust
kts
25/01:00pm 29.7 27.7 20.8 58 5.9 WSW 32 37 17 20 1013.1 1013.0 -
25/12:30pm 29.0 27.2 20.4 59 5.7 W 30 35 16 19 1013.5 1013.4 -
25/12:00pm 29.3 27.0 19.3 55 6.5 W 30 39 16 21 1013.8 1013.7 -
25/11:30am 30.0 28.6 19.7 54 6.8 WSW 26 32 14 17 1014.0 1013.9 -
25/11:00am 29.6 28.6 19.6 55 6.5 WSW 24 30 13 16 1014.1 1014.0 -
25/10:30am 29.9 27.9 18.3 49 7.5 WSW 26 32 14 17 1014.3 1014.2 -
25/10:00am 30.7 27.3 15.9 40 9.2 SW 28 33 15 18 1014.4 1014.3 -
25/09:30am 29.1 26.9 17.0 48 7.6 SW 24 28 13 15 1014.5 1014.4 -
25/09:00am 28.5 26.2 17.7 52 6.8 SW 26 30 14 16 1014.4 1014.3 -
25/08:30am 28.1 26.1 17.3 52 6.8 SW 24 30 13 16 1014.5 1014.4 -
25/08:00am 27.5 26.2 18.2 57 5.9 SW 22 26 12 14 1014.1 1014.0 -
25/07:30am 27.0 25.2 17.8 57 5.8 SW 24 30 13 16 1014.0 1013.9 -
25/07:00am 26.2 25.1 17.8 60 5.3 SW 20 28 11 15 1013.8 1013.7 -
25/06:30am 25.3 24.4 18.2 64 4.5 SW 20 24 11 13 1013.3 1013.2 -
25/06:00am 24.6 22.6 18.3 68 4.0 SW 26 30 14 16 1013.0 1012.9 -
25/05:30am 24.5 22.5 18.2 68 4.0 SW 26 30 14 16 1012.6 1012.5 -
25/05:00am 24.8 23.0 17.8 65 4.4 SW 24 28 13 15 1012.5 1012.4 -
25/04:30am 25.0 22.5 17.2 62 4.8 SW 26 30 14 16 1012.3 1012.2 -
25/04:00am 25.0 22.5 17.2 62 4.9 SW 26 32 14 17 1011.9 1011.8 -
25/03:30am 25.1 22.6 17.1 61 5.0 SW 26 33 14 18 1011.8 1011.7 -
25/03:00am 25.2 23.5 18.2 65 4.4 SW 24 28 13 15 1011.5 1011.4 -
25/02:30am 25.3 23.4 18.5 66 4.3 SW 26 32 14 17 1011.4 1011.3 -
25/02:00am 25.3 23.1 18.7 67 4.2 SW 28 35 15 19 1011.3 1011.2 -
25/01:30am 25.1 23.7 19.7 72 3.5 SW 26 32 14 17 1011.4 1011.3 -
25/01:00am 25.0 23.9 20.3 75 3.1 SW 26 32 14 17 1011.7 1011.6 -
25/12:30am 25.2 23.8 21.1 78 2.7 WSW 30 35 16 19 1011.9 1011.8 -
25/12:00am 25.1 24.1 21.2 79 2.6 WSW 28 33 15 18 1012.2 1012.1 -
 
Date/Time
WST
Temp
°C
App
Temp
°C
Dew
Point
Rel
Hum
%
Delta-T
°C
Wind Press
QNH
hPa
Press
MSL
hPa
Rain
since 9 am
mm
Dir
 
Spd
km/h
Gust
km/h
Spd
kts
Gust
kts
24/11:30pm 25.2 24.0 20.9 77 2.8 WSW 28 33 15 18 1012.4 1012.3 -
24/11:00pm 25.3 24.1 20.8 76 3.0 SW 28 33 15 18 1012.6 1012.5 -
24/10:30pm 25.4 23.3 20.6 75 3.1 WSW 32 39 17 21 1012.5 1012.4 -
24/10:00pm 25.5 23.3 20.7 75 3.2 WSW 33 41 18 22 1012.3 1012.2 -
24/09:30pm 25.6 23.5 20.6 74 3.3 WSW 32 41 17 22 1012.1 1012.0 -
24/09:00pm 25.6 24.2 20.4 73 3.4 SW 28 33 15 18 1011.8 1011.7 -
24/08:30pm 25.5 24.4 20.3 73 3.4 SW 26 32 14 17 1011.4 1011.3 -
24/08:00pm 25.6 23.7 20.2 72 3.5 WSW 30 37 16 20 1011.1 1011.0 -
24/07:30pm 26.0 23.2 20.3 71 3.7 WSW 35 43 19 23 1010.7 1010.6 -
24/07:00pm 26.4 23.8 19.8 67 4.3 WSW 33 43 18 23 1010.3 1010.2 -
24/06:30pm 26.9 23.5 18.2 59 5.5 WSW 33 43 18 23 1009.8 1009.7 -
24/06:00pm 27.3 24.4 18.0 56 5.9 WSW 30 35 16 19 1009.6 1009.5 -
24/05:30pm 27.7 25.9 18.7 58 5.8 WSW 26 33 14 18 1009.3 1009.2 -
24/05:00pm 28.2 25.5 19.2 58 5.8 WSW 32 37 17 20 1008.9 1008.8 -
24/04:30pm 28.5 25.4 18.9 56 6.2 WSW 33 39 18 21 1008.7 1008.6 -
24/04:00pm 29.0 26.2 19.0 54 6.5 WSW 32 41 17 22 1008.8 1008.7 -
24/03:30pm 29.7 26.8 18.8 52 7.0 WSW 32 39 17 21 1009.1 1009.0 -
24/03:00pm 29.6 27.5 19.0 53 6.9 WSW 28 37 15 20 1009.4 1009.3 -
24/02:30pm 29.8 28.4 20.4 57 6.2 WSW 28 35 15 19 1009.7 1009.6 -
24/02:00pm 29.3 27.6 20.5 59 5.8 WSW 30 35 16 19 1009.9 1009.8 -
24/01:30pm 29.3 27.9 20.5 59 5.8 WSW 28 33 15 18 1010.3 1010.2 -
24/01:00pm 30.4 29.8 21.2 58 6.2 WSW 26 32 14 17 1010.7 1010.6 -
24/12:30pm 28.7 27.7 20.4 60 5.5 WSW 26 32 14 17 1011.1 1011.0 -
24/12:00pm 29.8 29.9 20.4 57 6.2 W 20 28 11 15 1011.4 1011.3 -
24/11:30am 29.5 29.5 19.8 56 6.4 WSW 19 22 10 12 1011.5 1011.4 -
24/11:00am 29.9 30.3 21.0 59 5.9 WSW 20 26 11 14 1011.7 1011.6 -
24/10:30am 29.5 29.4 21.4 61 5.4 WSW 24 28 13 15 1011.8 1011.7 -
24/10:00am 29.2 27.2 18.3 51 7.0 SW 26 32 14 17 1011.8 1011.7 -
24/09:30am 28.6 25.8 18.1 53 6.7 SW 30 33 16 18 1011.9 1011.8 -
24/09:00am 27.8 25.6 19.6 61 5.3 WSW 30 33 16 18 1011.9 1011.8 -
24/08:30am 27.6 26.2 19.7 62 5.1 SW 26 32 14 17 1011.9 1011.8 -
24/08:00am 26.8 24.4 19.2 63 4.9 SW 30 33 16 18 1011.6 1011.5 -
24/07:30am 26.4 24.9 19.5 66 4.5 SW 26 30 14 16 1011.4 1011.3 -
24/07:00am 25.6 24.7 19.9 70 3.7 SW 24 28 13 15 1011.4 1011.3 -
24/06:30am 24.7 24.2 20.0 75 3.0 SW 22 28 12 15 1011.3 1011.2 -
24/06:00am 24.0 23.4 19.7 77 2.8 SW 22 26 12 14 1011.1 1011.0 -
24/05:30am 23.9 23.2 19.4 76 2.9 SW 22 28 12 15 1011.0 1010.9 -
24/05:00am 23.9 23.0 19.0 74 3.1 SW 22 26 12 14 1010.8 1010.7 -
24/04:30am 24.1 22.2 18.5 71 3.5 SW 26 32 14 17 1010.6 1010.5 -
24/04:00am 24.2 21.5 18.4 70 3.7 SW 30 33 16 18 1010.4 1010.3 -
24/03:30am 24.4 22.2 18.8 71 3.6 SW 28 33 15 18 1010.3 1010.2 -
24/03:00am 24.4 22.3 19.0 72 3.4 SW 28 32 15 17 1010.4 1010.3 -
24/02:30am 24.6 22.6 19.2 72 3.5 SW 28 33 15 18 1010.6 1010.5 -
24/02:00am 24.7 22.9 19.5 73 3.3 SW 28 35 15 19 1010.4 1010.3 -
24/01:30am 24.8 23.5 20.7 78 2.7 SSW 28 35 15 19 1010.5 1010.4 -
24/01:00am 24.9 24.5 21.6 82 2.2 SSW 26 33 14 18 1010.9 1010.8 -
24/12:30am 24.9 22.9 21.8 83 2.1 SW 35 44 19 24 1010.8 1010.7 -
24/12:00am 25.0 22.6 21.9 83 2.1 SW 37 46 20 25 1010.8 1010.7 -
 
Date/Time
WST
Temp
°C
App
Temp
°C
Dew
Point
Rel
Hum
%
Delta-T
°C
Wind Press
QNH
hPa
Press
MSL
hPa
Rain
since 9 am
mm
Dir
 
Spd
km/h
Gust
km/h
Spd
kts
Gust
kts
23/11:30pm 25.0 23.0 21.9 83 2.1 SW 35 44 19 24 1011.2 1011.1 -
23/11:00pm 25.1 22.3 21.8 82 2.2 SW 39 48 21 26 1011.4 1011.3 -
23/10:30pm 25.1 23.1 21.8 82 2.2 SW 35 46 19 25 1011.8 1011.7 -
23/10:00pm 25.2 22.3 21.5 80 2.5 SW 39 46 21 25 1011.8 1011.7 -
23/09:30pm 25.3 22.6 21.2 78 2.7 SW 37 46 20 25 1011.9 1011.8 -
23/09:00pm 25.2 23.3 21.3 79 2.6 SW 33 39 18 21 1011.9 1011.8 -
23/08:30pm 25.3 23.1 21.4 79 2.6 WSW 35 41 19 22 1011.6 1011.5 -
23/08:00pm 25.4 23.1 21.3 78 2.7 WSW 35 43 19 23 1011.5 1011.4 -
23/07:30pm 25.3 22.8 20.8 76 3.0 WSW 35 41 19 22 1011.2 1011.1 -
23/07:00pm 25.4 23.0 20.4 74 3.3 WSW 33 41 18 22 1011.0 1010.9 -
23/06:30pm 25.5 22.3 20.3 73 3.4 WSW 37 44 20 24 1010.6 1010.5 -
23/06:00pm 26.0 24.3 20.6 72 3.5 WSW 30 37 16 20 1010.5 1010.4 -
23/05:30pm 26.6 25.2 20.4 69 4.1 WSW 28 33 15 18 1010.4 1010.3 -
23/05:00pm 27.0 25.3 20.6 68 4.2 WSW 30 35 16 19 1010.1 1010.0 -
23/04:30pm 27.4 25.4 20.7 67 4.4 WSW 32 41 17 22 1010.0 1009.9 -
23/04:00pm 28.3 26.2 20.6 63 5.1 WSW 32 39 17 21 1010.1 1010.0 -
23/03:30pm 28.4 26.5 20.2 61 5.4 W 30 41 16 22 1010.1 1010.0 -
23/03:00pm 28.7 26.8 20.2 60 5.6 W 30 37 16 20 1010.3 1010.2 -
23/02:30pm 28.6 26.7 20.1 60 5.6 W 30 37 16 20 1010.6 1010.5 -
23/02:00pm 29.5 28.7 20.1 57 6.2 W 24 30 13 16 1010.8 1010.7 -
23/01:30pm 29.9 29.0 19.9 55 6.6 W 24 30 13 16 1011.1 1011.0 -
23/01:00pm 29.7 28.1 19.1 53 6.9 W 26 30 14 16 1011.5 1011.4 -
23/12:30pm 29.2 28.1 18.6 52 6.8 W 22 30 12 16 1012.0 1011.9 -
23/12:00pm 29.9 28.5 18.7 51 7.2 W 24 30 13 16 1012.3 1012.2 -
23/11:30am 28.6 26.3 18.4 54 6.5 WSW 28 32 15 17 1012.6 1012.5 -
23/11:00am 28.8 26.9 18.6 54 6.6 WSW 26 30 14 16 1012.9 1012.8 -
23/10:30am 30.1 29.8 19.5 53 6.9 WSW 20 28 11 15 1013.1 1013.0 -
23/10:00am 29.6 28.8 18.4 51 7.2 WSW 20 24 11 13 1013.3 1013.2 -
23/09:30am 29.3 27.1 16.8 47 7.8 SW 24 28 13 15 1013.2 1013.1 -
23/09:00am 28.9 27.9 18.9 54 6.5 SW 22 26 12 14 1013.1 1013.0 -
23/08:30am 28.9 27.4 17.7 50 7.1 SSW 22 28 12 15 1012.9 1012.8 -
23/08:00am 27.9 25.0 17.1 51 6.8 SW 28 32 15 17 1012.4 1012.3 -
23/07:30am 27.5 26.0 17.7 55 6.2 SSW 22 26 12 14 1012.4 1012.3 -
23/07:00am 26.4 24.5 18.5 62 5.0 SW 26 32 14 17 1012.2 1012.1 -
23/06:30am 25.5 23.3 18.7 66 4.3 SW 28 32 15 17 1011.9 1011.8 -
23/06:00am 25.0 23.0 18.4 66 4.2 SW 26 32 14 17 1011.5 1011.4 -
23/05:30am 25.1 22.4 18.5 67 4.2 SW 30 37 16 20 1011.3 1011.2 -
23/05:00am 25.3 23.4 18.5 66 4.3 SW 26 32 14 17 1011.1 1011.0 -
23/04:30am 25.6 23.1 18.0 63 4.8 SW 28 33 15 18 1011.0 1010.9 -
23/04:00am 25.7 22.5 18.1 63 4.8 SSW 32 37 17 20 1010.7 1010.6 -
23/03:30am 25.9 22.7 18.1 62 4.9 SSW 32 39 17 21 1010.8 1010.7 -
23/03:00am 26.0 22.8 18.7 64 4.7 SW 33 39 18 21 1010.5 1010.4 -
23/02:30am 26.2 22.6 18.6 63 4.8 SW 35 44 19 24 1010.6 1010.5 -
23/02:00am 26.6 23.1 18.7 62 5.1 SW 35 43 19 23 1010.6 1010.5 -
23/01:30am 26.6 23.3 19.2 64 4.8 SW 35 41 19 22 1010.9 1010.8 -
23/01:00am 26.2 23.9 20.1 69 4.0 SW 32 39 17 21 1011.2 1011.1 -
23/12:30am 26.0 25.3 21.0 74 3.3 SW 26 33 14 18 1011.5 1011.4 -
23/12:00am 26.1 24.2 21.3 75 3.2 SW 33 41 18 22 1011.5 1011.4 -
 
Date/Time
WST
Temp
°C
App
Temp
°C
Dew
Point
Rel
Hum
%
Delta-T
°C
Wind Press
QNH
hPa
Press
MSL
hPa
Rain
since 9 am
mm
Dir
 
Spd
km/h
Gust
km/h
Spd
kts
Gust
kts
22/11:30pm 26.3 24.6 21.3 74 3.3 SW 32 39 17 21 1012.0 1011.9 -
22/11:00pm 26.2 24.6 21.8 77 2.9 SW 33 39 18 21 1012.0 1011.9 -
22/10:30pm 25.9 24.2 22.4 81 2.4 WSW 35 41 19 22 1012.2 1012.1 -
22/10:00pm 25.9 24.7 22.2 80 2.5 WSW 32 37 17 20 1012.6 1012.5 -
22/09:30pm 26.0 24.9 21.7 77 2.9 WSW 30 39 16 21 1012.6 1012.5 -
22/09:00pm 26.1 24.2 21.3 75 3.2 WSW 33 39 18 21 1012.6 1012.5 -
22/08:30pm 26.2 24.5 21.4 75 3.2 SW 32 39 17 21 1012.6 1012.5 -
22/08:00pm 26.3 24.5 21.5 75 3.2 SW 33 41 18 22 1012.4 1012.3 -
22/07:30pm 26.4 24.2 21.4 74 3.3 SW 35 44 19 24 1012.2 1012.1 -
22/07:00pm 26.6 24.6 21.1 72 3.6 SW 33 41 18 22 1011.7 1011.6 -
22/06:30pm 26.6 24.0 20.7 70 3.9 WSW 35 48 19 26 1011.4 1011.3 -
22/06:00pm 26.7 24.6 21.0 71 3.8 WSW 33 41 18 22 1011.0 1010.9 -
22/05:30pm 27.6 26.0 20.7 66 4.6 SW 30 37 16 20 1010.8 1010.7 -
22/05:00pm 27.4 24.6 20.2 65 4.7 WSW 35 43 19 23 1010.6 1010.5 -
22/04:30pm 28.3 25.7 20.6 63 5.1 WSW 35 44 19 24 1010.6 1010.5 -
22/04:00pm 29.0 25.4 19.3 55 6.3 WSW 37 46 20 25 1010.7 1010.6 -
22/03:30pm 29.4 26.1 20.0 57 6.2 WSW 37 44 20 24 1010.6 1010.5 -
22/03:00pm 29.0 24.4 19.6 57 6.1 WSW 43 50 23 27 1010.5 1010.4 -
22/02:30pm 30.1 26.3 19.8 54 6.8 WSW 39 46 21 25 1010.6 1010.5 -
22/02:00pm 29.4 25.4 19.4 55 6.5 WSW 39 46 21 25 1011.1 1011.0 -
22/01:30pm 29.9 28.6 19.9 55 6.6 WSW 26 33 14 18 1012.1 1012.0 -

Other Formats:

Comma delimited format used in spreadsheet applications
http://www.bom.gov.au/fwo/IDW60801/IDW60801.94307.axf

JavaScript Object Notation format (JSON) in row-major order
http://www.bom.gov.au/fwo/IDW60801/IDW60801.94307.json